sensor_id;sensor_type;location;lat;lon;timestamp;P1;durP1;ratioP1;P2;durP2;ratioP2
71955;SDS011;59829;50.562;6.258;2023-05-27T00:00:13;6.93;;;1.80;;
71955;SDS011;59829;50.562;6.258;2023-05-27T00:10:14;5.20;;;1.55;;
71955;SDS011;59829;50.562;6.258;2023-05-27T00:20:15;5.57;;;1.70;;
71955;SDS011;59829;50.562;6.258;2023-05-27T00:30:15;5.55;;;1.55;;
71955;SDS011;59829;50.562;6.258;2023-05-27T00:40:18;4.50;;;1.70;;
71955;SDS011;59829;50.562;6.258;2023-05-27T00:50:22;8.57;;;1.95;;
71955;SDS011;59829;50.562;6.258;2023-05-27T01:00:25;6.87;;;1.67;;
71955;SDS011;59829;50.562;6.258;2023-05-27T01:10:31;9.60;;;1.85;;
71955;SDS011;59829;50.562;6.258;2023-05-27T01:20:33;5.50;;;2.22;;
71955;SDS011;59829;50.562;6.258;2023-05-27T01:30:40;6.13;;;2.00;;
71955;SDS011;59829;50.562;6.258;2023-05-27T01:40:41;6.00;;;2.05;;
71955;SDS011;59829;50.562;6.258;2023-05-27T01:50:42;4.07;;;1.70;;
71955;SDS011;59829;50.562;6.258;2023-05-27T02:00:42;5.65;;;1.65;;
71955;SDS011;59829;50.562;6.258;2023-05-27T02:10:43;7.05;;;1.80;;
71955;SDS011;59829;50.562;6.258;2023-05-27T02:20:43;4.90;;;1.92;;
71955;SDS011;59829;50.562;6.258;2023-05-27T02:30:43;6.35;;;1.90;;
71955;SDS011;59829;50.562;6.258;2023-05-27T02:40:44;5.45;;;1.83;;
71955;SDS011;59829;50.562;6.258;2023-05-27T02:50:44;5.93;;;1.80;;
71955;SDS011;59829;50.562;6.258;2023-05-27T03:00:45;5.15;;;2.17;;
71955;SDS011;59829;50.562;6.258;2023-05-27T03:10:45;4.95;;;1.90;;
71955;SDS011;59829;50.562;6.258;2023-05-27T03:20:46;6.80;;;1.92;;
71955;SDS011;59829;50.562;6.258;2023-05-27T03:30:46;7.63;;;1.92;;
71955;SDS011;59829;50.562;6.258;2023-05-27T03:40:47;5.47;;;1.98;;
71955;SDS011;59829;50.562;6.258;2023-05-27T03:50:47;5.88;;;1.85;;
71955;SDS011;59829;50.562;6.258;2023-05-27T04:00:47;7.40;;;2.13;;
71955;SDS011;59829;50.562;6.258;2023-05-27T04:10:49;5.13;;;1.77;;
71955;SDS011;59829;50.562;6.258;2023-05-27T04:20:49;5.47;;;2.00;;
71955;SDS011;59829;50.562;6.258;2023-05-27T04:30:50;5.45;;;1.98;;
71955;SDS011;59829;50.562;6.258;2023-05-27T04:40:51;6.20;;;2.15;;
71955;SDS011;59829;50.562;6.258;2023-05-27T04:50:52;7.05;;;2.20;;
71955;SDS011;59829;50.562;6.258;2023-05-27T05:00:53;7.85;;;2.35;;
71955;SDS011;59829;50.562;6.258;2023-05-27T05:10:56;6.28;;;2.25;;
71955;SDS011;59829;50.562;6.258;2023-05-27T05:20:56;7.35;;;2.42;;
71955;SDS011;59829;50.562;6.258;2023-05-27T05:30:57;6.85;;;2.80;;
71955;SDS011;59829;50.562;6.258;2023-05-27T05:40:57;5.65;;;1.83;;
71955;SDS011;59829;50.562;6.258;2023-05-27T05:50:57;8.75;;;2.60;;
71955;SDS011;59829;50.562;6.258;2023-05-27T06:00:57;9.27;;;2.45;;
71955;SDS011;59829;50.562;6.258;2023-05-27T06:10:58;5.80;;;2.40;;
71955;SDS011;59829;50.562;6.258;2023-05-27T06:20:59;7.35;;;2.40;;
71955;SDS011;59829;50.562;6.258;2023-05-27T06:30:59;5.70;;;2.15;;
71955;SDS011;59829;50.562;6.258;2023-05-27T06:41:00;6.90;;;2.10;;
71955;SDS011;59829;50.562;6.258;2023-05-27T06:51:00;7.68;;;1.92;;
71955;SDS011;59829;50.562;6.258;2023-05-27T07:01:00;6.07;;;1.80;;
71955;SDS011;59829;50.562;6.258;2023-05-27T07:11:01;5.90;;;1.98;;
71955;SDS011;59829;50.562;6.258;2023-05-27T07:21:01;6.75;;;1.90;;
71955;SDS011;59829;50.562;6.258;2023-05-27T07:31:02;5.30;;;1.50;;
71955;SDS011;59829;50.562;6.258;2023-05-27T07:41:02;6.50;;;1.90;;
71955;SDS011;59829;50.562;6.258;2023-05-27T07:51:02;4.95;;;1.38;;
71955;SDS011;59829;50.562;6.258;2023-05-27T08:01:03;6.88;;;1.90;;
71955;SDS011;59829;50.562;6.258;2023-05-27T08:11:03;3.85;;;1.50;;
71955;SDS011;59829;50.562;6.258;2023-05-27T08:21:04;6.22;;;1.67;;
71955;SDS011;59829;50.562;6.258;2023-05-27T08:31:04;6.68;;;1.50;;
71955;SDS011;59829;50.562;6.258;2023-05-27T08:41:05;4.05;;;1.40;;
71955;SDS011;59829;50.562;6.258;2023-05-27T08:51:05;5.10;;;1.75;;
71955;SDS011;59829;50.562;6.258;2023-05-27T09:01:05;3.47;;;1.40;;
71955;SDS011;59829;50.562;6.258;2023-05-27T09:11:06;3.97;;;1.52;;
71955;SDS011;59829;50.562;6.258;2023-05-27T09:21:08;2.63;;;1.20;;
71955;SDS011;59829;50.562;6.258;2023-05-27T09:31:08;3.95;;;1.42;;
71955;SDS011;59829;50.562;6.258;2023-05-27T09:41:09;4.68;;;1.45;;
71955;SDS011;59829;50.562;6.258;2023-05-27T09:51:09;5.70;;;1.50;;
71955;SDS011;59829;50.562;6.258;2023-05-27T10:01:10;4.32;;;1.65;;
71955;SDS011;59829;50.562;6.258;2023-05-27T10:11:11;5.88;;;1.27;;
71955;SDS011;59829;50.562;6.258;2023-05-27T10:21:17;4.05;;;1.60;;
71955;SDS011;59829;50.562;6.258;2023-05-27T10:31:22;4.47;;;1.40;;
71955;SDS011;59829;50.562;6.258;2023-05-27T10:41:38;5.13;;;1.70;;
71955;SDS011;59829;50.562;6.258;2023-05-27T10:51:40;3.78;;;1.27;;
71955;SDS011;59829;50.562;6.258;2023-05-27T11:01:42;5.25;;;1.70;;
71955;SDS011;59829;50.562;6.258;2023-05-27T11:11:43;6.03;;;2.00;;
71955;SDS011;59829;50.562;6.258;2023-05-27T11:21:44;4.53;;;1.52;;
71955;SDS011;59829;50.562;6.258;2023-05-27T11:31:46;4.47;;;1.50;;
71955;SDS011;59829;50.562;6.258;2023-05-27T11:41:51;4.28;;;1.48;;
71955;SDS011;59829;50.562;6.258;2023-05-27T11:51:54;9.75;;;1.65;;
71955;SDS011;59829;50.562;6.258;2023-05-27T12:01:55;16.88;;;2.33;;
71955;SDS011;59829;50.562;6.258;2023-05-27T12:11:55;2.47;;;1.40;;
71955;SDS011;59829;50.562;6.258;2023-05-27T12:21:56;4.20;;;1.40;;
71955;SDS011;59829;50.562;6.258;2023-05-27T12:31:56;4.63;;;1.73;;
71955;SDS011;59829;50.562;6.258;2023-05-27T12:41:57;3.90;;;1.48;;
71955;SDS011;59829;50.562;6.258;2023-05-27T12:51:57;5.28;;;1.52;;
71955;SDS011;59829;50.562;6.258;2023-05-27T13:01:57;6.15;;;1.65;;
71955;SDS011;59829;50.562;6.258;2023-05-27T13:11:58;5.47;;;1.98;;
71955;SDS011;59829;50.562;6.258;2023-05-27T13:21:59;3.60;;;1.38;;
71955;SDS011;59829;50.562;6.258;2023-05-27T13:31:59;6.03;;;1.90;;
71955;SDS011;59829;50.562;6.258;2023-05-27T13:42:00;4.47;;;1.73;;
71955;SDS011;59829;50.562;6.258;2023-05-27T13:52:00;4.22;;;1.60;;
71955;SDS011;59829;50.562;6.258;2023-05-27T14:02:01;2.97;;;1.42;;
71955;SDS011;59829;50.562;6.258;2023-05-27T14:12:05;6.35;;;1.42;;
71955;SDS011;59829;50.562;6.258;2023-05-27T14:22:06;5.30;;;1.50;;
71955;SDS011;59829;50.562;6.258;2023-05-27T14:32:07;4.13;;;1.30;;
71955;SDS011;59829;50.562;6.258;2023-05-27T14:42:07;4.10;;;1.50;;
71955;SDS011;59829;50.562;6.258;2023-05-27T14:52:08;6.70;;;1.50;;
71955;SDS011;59829;50.562;6.258;2023-05-27T15:02:08;3.47;;;1.42;;
71955;SDS011;59829;50.562;6.258;2023-05-27T15:12:08;3.80;;;1.52;;
71955;SDS011;59829;50.562;6.258;2023-05-27T15:22:09;4.13;;;1.33;;
71955;SDS011;59829;50.562;6.258;2023-05-27T15:32:09;3.83;;;1.42;;
71955;SDS011;59829;50.562;6.258;2023-05-27T15:42:09;3.95;;;1.40;;
71955;SDS011;59829;50.562;6.258;2023-05-27T15:52:10;4.20;;;1.23;;
71955;SDS011;59829;50.562;6.258;2023-05-27T16:02:12;2.38;;;1.27;;
71955;SDS011;59829;50.562;6.258;2023-05-27T16:12:12;3.35;;;1.20;;
71955;SDS011;59829;50.562;6.258;2023-05-27T16:22:13;4.40;;;1.50;;
71955;SDS011;59829;50.562;6.258;2023-05-27T16:32:13;3.22;;;1.25;;
71955;SDS011;59829;50.562;6.258;2023-05-27T16:42:13;5.20;;;1.33;;
71955;SDS011;59829;50.562;6.258;2023-05-27T16:52:14;3.78;;;1.30;;
71955;SDS011;59829;50.562;6.258;2023-05-27T17:02:14;4.63;;;1.30;;
71955;SDS011;59829;50.562;6.258;2023-05-27T17:12:14;3.75;;;1.20;;
71955;SDS011;59829;50.562;6.258;2023-05-27T17:22:15;4.03;;;1.17;;
71955;SDS011;59829;50.562;6.258;2023-05-27T17:32:15;2.70;;;1.10;;
71955;SDS011;59829;50.562;6.258;2023-05-27T17:42:16;6.15;;;1.35;;
71955;SDS011;59829;50.562;6.258;2023-05-27T17:52:16;3.67;;;1.30;;
71955;SDS011;59829;50.562;6.258;2023-05-27T18:02:17;4.85;;;1.23;;
71955;SDS011;59829;50.562;6.258;2023-05-27T18:12:17;3.97;;;1.10;;
71955;SDS011;59829;50.562;6.258;2023-05-27T18:22:17;3.40;;;1.20;;
71955;SDS011;59829;50.562;6.258;2023-05-27T18:32:19;3.05;;;1.27;;
71955;SDS011;59829;50.562;6.258;2023-05-27T18:42:20;4.17;;;1.30;;
71955;SDS011;59829;50.562;6.258;2023-05-27T18:52:20;3.42;;;1.23;;
71955;SDS011;59829;50.562;6.258;2023-05-27T19:02:21;3.50;;;0.95;;
71955;SDS011;59829;50.562;6.258;2023-05-27T19:12:22;2.72;;;1.10;;
71955;SDS011;59829;50.562;6.258;2023-05-27T19:22:22;2.20;;;1.05;;
71955;SDS011;59829;50.562;6.258;2023-05-27T19:32:23;4.45;;;1.48;;
71955;SDS011;59829;50.562;6.258;2023-05-27T19:42:23;3.17;;;1.30;;
71955;SDS011;59829;50.562;6.258;2023-05-27T19:52:23;3.65;;;1.58;;
71955;SDS011;59829;50.562;6.258;2023-05-27T20:02:25;4.43;;;1.70;;
71955;SDS011;59829;50.562;6.258;2023-05-27T20:12:35;4.32;;;1.70;;
71955;SDS011;59829;50.562;6.258;2023-05-27T20:22:36;3.88;;;1.50;;
71955;SDS011;59829;50.562;6.258;2023-05-27T20:32:37;3.75;;;1.70;;
71955;SDS011;59829;50.562;6.258;2023-05-27T20:42:38;5.82;;;1.80;;
71955;SDS011;59829;50.562;6.258;2023-05-27T20:52:39;4.45;;;2.00;;
71955;SDS011;59829;50.562;6.258;2023-05-27T21:02:40;4.15;;;1.90;;
71955;SDS011;59829;50.562;6.258;2023-05-27T21:12:40;6.38;;;2.30;;
71955;SDS011;59829;50.562;6.258;2023-05-27T21:22:40;4.97;;;2.00;;
71955;SDS011;59829;50.562;6.258;2023-05-27T21:32:41;5.82;;;2.30;;
71955;SDS011;59829;50.562;6.258;2023-05-27T21:42:41;5.25;;;2.17;;
71955;SDS011;59829;50.562;6.258;2023-05-27T21:52:42;6.18;;;2.53;;
71955;SDS011;59829;50.562;6.258;2023-05-27T22:02:43;5.68;;;2.22;;
71955;SDS011;59829;50.562;6.258;2023-05-27T22:12:44;6.10;;;2.67;;
71955;SDS011;59829;50.562;6.258;2023-05-27T22:22:44;5.68;;;2.20;;
71955;SDS011;59829;50.562;6.258;2023-05-27T22:32:46;5.65;;;2.72;;
71955;SDS011;59829;50.562;6.258;2023-05-27T22:42:46;6.43;;;2.50;;
71955;SDS011;59829;50.562;6.258;2023-05-27T22:52:47;6.25;;;2.40;;
71955;SDS011;59829;50.562;6.258;2023-05-27T23:02:48;5.95;;;2.38;;
71955;SDS011;59829;50.562;6.258;2023-05-27T23:12:49;5.57;;;2.30;;
71955;SDS011;59829;50.562;6.258;2023-05-27T23:22:49;6.53;;;2.63;;
71955;SDS011;59829;50.562;6.258;2023-05-27T23:32:50;6.43;;;2.72;;
71955;SDS011;59829;50.562;6.258;2023-05-27T23:42:50;6.30;;;2.47;;
71955;SDS011;59829;50.562;6.258;2023-05-27T23:52:51;6.13;;;2.45;;
